createdAt,value
2018-11-28T00:00:16.880Z,1.80
2018-11-28T00:02:45.001Z,1.80
2018-11-28T00:05:13.141Z,1.70
2018-11-28T00:07:41.591Z,1.70
2018-11-28T00:10:12.688Z,1.70
2018-11-28T00:12:41.139Z,1.70
2018-11-28T00:15:11.409Z,1.70
2018-11-28T00:17:39.522Z,1.70
2018-11-28T00:20:11.672Z,1.70
2018-11-28T00:22:39.829Z,1.80
2018-11-28T00:25:08.653Z,1.80
2018-11-28T00:27:36.773Z,1.80
2018-11-28T00:30:08.553Z,1.80
2018-11-28T00:32:36.696Z,1.80
2018-11-28T00:35:05.401Z,1.70
2018-11-28T00:37:33.513Z,1.70
2018-11-28T00:40:01.872Z,1.70
2018-11-28T00:42:30.369Z,1.60
2018-11-28T00:44:58.821Z,1.60
2018-11-28T00:47:26.912Z,1.60
2018-11-28T00:49:55.024Z,1.60
2018-11-28T00:52:23.136Z,1.50
2018-11-28T00:54:51.242Z,1.40
2018-11-28T00:57:19.360Z,1.30
2018-11-28T00:59:47.480Z,1.20
2018-11-28T01:02:15.592Z,1.20
2018-11-28T01:04:43.692Z,1.10
2018-11-28T01:07:11.804Z,1.00
2018-11-28T01:09:39.912Z,1.00
2018-11-28T01:12:08.071Z,0.90
2018-11-28T01:14:36.177Z,0.80
2018-11-28T01:17:04.298Z,0.70
2018-11-28T01:19:32.404Z,0.70
2018-11-28T01:22:00.516Z,0.70
2018-11-28T01:24:28.612Z,0.70
2018-11-28T01:26:56.765Z,0.70
2018-11-28T01:29:24.877Z,0.70
2018-11-28T01:31:53.065Z,0.70
2018-11-28T01:34:21.198Z,0.60
2018-11-28T01:36:49.293Z,0.60
2018-11-28T01:39:17.409Z,0.70
2018-11-28T01:41:45.511Z,0.80
2018-11-28T01:44:13.628Z,0.80
2018-11-28T01:46:41.728Z,0.90
2018-11-28T01:49:09.871Z,0.90
2018-11-28T01:51:37.976Z,1.00
2018-11-28T01:54:06.214Z,1.10
2018-11-28T01:56:34.309Z,1.10
2018-11-28T01:59:02.433Z,1.10
2018-11-28T02:01:30.584Z,1.10
2018-11-28T02:03:58.696Z,1.10
2018-11-28T02:06:26.809Z,1.10
2018-11-28T02:08:54.916Z,1.00
2018-11-28T02:11:23.020Z,1.00
2018-11-28T02:13:51.169Z,1.00
2018-11-28T02:16:19.273Z,1.00
2018-11-28T02:18:47.377Z,0.90
2018-11-28T02:21:15.488Z,0.90
2018-11-28T02:23:43.608Z,0.90
2018-11-28T02:26:11.713Z,0.90
2018-11-28T02:28:39.832Z,0.90
2018-11-28T02:31:07.953Z,0.90
2018-11-28T02:33:36.081Z,0.90
2018-11-28T02:36:04.185Z,0.90
2018-11-28T02:38:32.308Z,0.90
2018-11-28T02:41:00.409Z,0.90
2018-11-28T02:43:28.535Z,0.90
2018-11-28T02:46:35.484Z,0.90
2018-11-28T02:49:03.621Z,0.90
2018-11-28T02:51:31.728Z,0.90
2018-11-28T02:53:59.843Z,0.90
2018-11-28T02:56:27.952Z,0.90
2018-11-28T02:58:56.144Z,0.90
2018-11-28T03:01:24.299Z,0.90
2018-11-28T03:03:52.797Z,1.00
2018-11-28T03:06:20.901Z,0.90
2018-11-28T03:08:49.013Z,0.90
2018-11-28T03:11:17.130Z,0.90
2018-11-28T03:13:45.240Z,0.90
2018-11-28T03:16:18.420Z,0.80
2018-11-28T03:18:47.157Z,0.60
2018-11-28T03:21:15.397Z,0.60
2018-11-28T03:23:43.504Z,0.60
2018-11-28T03:26:11.615Z,0.60
2018-11-28T03:28:39.736Z,0.60
2018-11-28T03:31:07.857Z,0.60
2018-11-28T03:33:35.977Z,0.70
2018-11-28T03:36:04.145Z,0.70
2018-11-28T03:38:32.268Z,0.70
2018-11-28T03:41:00.392Z,0.70
2018-11-28T03:43:28.533Z,0.60
2018-11-28T03:45:56.644Z,0.60
2018-11-28T03:48:24.774Z,0.50
2018-11-28T03:50:52.891Z,0.50
2018-11-28T03:53:21.025Z,0.50
2018-11-28T03:55:49.147Z,0.50
2018-11-28T03:58:17.264Z,0.40
2018-11-28T04:00:45.372Z,0.40
2018-11-28T04:03:13.479Z,0.30
2018-11-28T04:05:41.727Z,0.40
2018-11-28T04:08:09.836Z,0.30
2018-11-28T04:10:37.948Z,0.30
2018-11-28T04:13:06.073Z,0.30
2018-11-28T04:15:34.184Z,0.30
2018-11-28T04:18:02.320Z,0.30
2018-11-28T04:20:30.455Z,0.30
2018-11-28T04:22:58.544Z,0.20
2018-11-28T04:25:26.665Z,0.10
2018-11-28T04:27:54.785Z,0.00
2018-11-28T04:30:23.797Z,0.00
2018-11-28T04:32:52.966Z,-0.10
2018-11-28T04:35:21.152Z,0.00
2018-11-28T04:37:49.340Z,0.00
2018-11-28T04:40:18.348Z,0.10
2018-11-28T04:42:47.025Z,0.10
2018-11-28T04:45:16.129Z,0.20
2018-11-28T04:47:44.342Z,0.20
2018-11-28T04:50:12.805Z,0.20
2018-11-28T04:52:41.026Z,0.30
2018-11-28T04:55:17.248Z,0.40
2018-11-28T04:57:45.568Z,0.40
2018-11-28T05:00:18.658Z,0.40
2018-11-28T05:02:46.877Z,0.50
2018-11-28T05:05:15.022Z,0.50
2018-11-28T05:07:44.004Z,0.60
2018-11-28T05:10:13.217Z,0.60
2018-11-28T05:12:41.381Z,0.60
2018-11-28T05:15:12.525Z,0.60
2018-11-28T05:17:40.733Z,0.70
2018-11-28T05:20:11.189Z,0.70
2018-11-28T05:22:39.445Z,0.70
2018-11-28T05:25:13.889Z,0.70
2018-11-28T05:27:42.104Z,0.70
2018-11-28T05:30:14.147Z,0.70
2018-11-28T05:32:42.269Z,0.70
2018-11-28T05:35:12.529Z,0.80
2018-11-28T05:37:40.648Z,0.70
2018-11-28T05:40:18.436Z,0.80
2018-11-28T05:42:46.654Z,0.80
2018-11-28T05:45:14.791Z,0.80
2018-11-28T05:47:42.916Z,0.90
2018-11-28T05:50:12.108Z,0.80
2018-11-28T05:52:40.224Z,0.90
2018-11-28T05:55:09.618Z,0.90
2018-11-28T05:57:37.750Z,0.90
2018-11-28T06:00:13.536Z,0.90
2018-11-28T06:02:41.720Z,0.90
2018-11-28T06:05:10.586Z,1.00
2018-11-28T06:07:38.856Z,1.00
2018-11-28T06:10:07.430Z,1.00
2018-11-28T06:12:35.600Z,1.00
2018-11-28T06:15:03.773Z,1.10
2018-11-28T06:17:31.876Z,1.10
2018-11-28T06:20:00.024Z,1.10
2018-11-28T06:22:28.120Z,1.10
2018-11-28T06:24:56.248Z,1.10
2018-11-28T06:27:24.369Z,1.20
2018-11-28T06:29:52.502Z,1.10
2018-11-28T06:32:20.621Z,1.10
2018-11-28T06:34:48.745Z,1.20
2018-11-28T06:37:16.912Z,1.20
2018-11-28T06:39:45.032Z,1.20
2018-11-28T06:42:13.137Z,1.20
2018-11-28T06:44:41.256Z,1.20
2018-11-28T06:47:09.364Z,1.20
2018-11-28T06:49:37.473Z,1.20
2018-11-28T06:52:05.594Z,1.20
2018-11-28T06:54:33.689Z,1.30
2018-11-28T06:57:01.912Z,1.30
2018-11-28T06:59:30.017Z,1.30
2018-11-28T07:01:58.137Z,1.30
2018-11-28T07:04:26.241Z,1.30
2018-11-28T07:06:54.380Z,1.30
2018-11-28T07:09:22.512Z,1.30
2018-11-28T07:11:50.628Z,1.30
2018-11-28T07:14:18.764Z,1.40
2018-11-28T07:16:46.898Z,1.40
2018-11-28T07:19:15.001Z,1.40
2018-11-28T07:21:43.125Z,1.40
2018-11-28T07:24:11.297Z,1.40
2018-11-28T07:26:39.429Z,1.40
2018-11-28T07:29:07.540Z,1.40
2018-11-28T07:31:35.652Z,1.40
2018-11-28T07:34:03.776Z,1.40
2018-11-28T07:36:31.885Z,1.40
2018-11-28T07:39:00.133Z,1.50
2018-11-28T07:41:28.464Z,1.50
2018-11-28T07:43:56.568Z,1.50
2018-11-28T07:46:24.708Z,1.50
2018-11-28T07:48:52.828Z,1.50
2018-11-28T07:51:20.955Z,1.50
2018-11-28T07:53:49.060Z,1.50
2018-11-28T07:56:17.188Z,1.60
2018-11-28T07:58:45.288Z,1.60
2018-11-28T08:01:13.400Z,1.60
2018-11-28T08:03:41.516Z,1.70
2018-11-28T08:06:09.630Z,1.70
2018-11-28T08:08:38.363Z,1.70
2018-11-28T08:11:07.314Z,1.70
2018-11-28T08:13:35.525Z,1.80
2018-11-28T08:16:03.640Z,1.80
2018-11-28T08:18:31.742Z,1.80
2018-11-28T08:20:59.864Z,1.80
2018-11-28T08:23:28.220Z,1.80
2018-11-28T08:25:56.117Z,1.80
2018-11-28T08:28:24.202Z,1.90
2018-11-28T08:30:52.325Z,1.90
2018-11-28T08:33:20.449Z,1.90
2018-11-28T08:35:48.565Z,1.90
2018-11-28T08:38:16.672Z,1.90
2018-11-28T08:40:44.789Z,1.90
2018-11-28T08:43:12.895Z,1.90
2018-11-28T08:45:41.028Z,1.90
2018-11-28T08:48:09.137Z,1.90
2018-11-28T08:50:38.086Z,1.90
2018-11-28T08:53:06.976Z,2.00
2018-11-28T08:55:35.118Z,2.00
2018-11-28T08:58:03.226Z,2.00
2018-11-28T09:00:31.328Z,2.10
2018-11-28T09:02:59.457Z,2.10
2018-11-28T09:05:27.576Z,2.20
2018-11-28T09:07:55.689Z,2.20
2018-11-28T09:10:23.877Z,2.20
2018-11-28T09:12:51.993Z,2.20
2018-11-28T09:15:24.837Z,2.30
2018-11-28T09:17:52.964Z,2.30
2018-11-28T09:20:21.056Z,2.40
2018-11-28T09:22:49.172Z,2.40
2018-11-28T09:25:17.962Z,2.40
2018-11-28T09:27:48.270Z,2.40
2018-11-28T09:30:17.276Z,2.40
2018-11-28T09:32:45.844Z,2.40
2018-11-28T09:35:14.524Z,2.40
2018-11-28T09:37:45.423Z,2.50
2018-11-28T09:40:14.993Z,2.50
2018-11-28T09:42:43.121Z,2.60
2018-11-28T09:45:12.552Z,2.60
2018-11-28T09:47:40.701Z,2.60
2018-11-28T09:50:14.724Z,2.70
2018-11-28T09:52:42.852Z,2.70
2018-11-28T09:55:12.401Z,2.80
2018-11-28T09:57:40.545Z,2.80
2018-11-28T10:00:12.560Z,2.80
2018-11-28T10:02:40.725Z,2.90
2018-11-28T10:05:10.832Z,2.90
2018-11-28T10:07:38.953Z,2.90
2018-11-28T10:10:09.216Z,2.90
2018-11-28T10:12:37.373Z,3.00
2018-11-28T10:15:10.387Z,3.10
2018-11-28T10:17:38.571Z,3.00
2018-11-28T10:20:08.076Z,3.00
2018-11-28T10:22:36.193Z,3.10
2018-11-28T10:25:04.617Z,3.10
2018-11-28T10:27:32.733Z,3.10
2018-11-28T10:30:00.956Z,3.10
2018-11-28T10:32:29.085Z,3.10
2018-11-28T10:34:57.196Z,3.20
2018-11-28T10:37:25.322Z,3.20
2018-11-28T10:39:53.428Z,3.30
2018-11-28T10:42:21.538Z,3.30
2018-11-28T10:44:49.654Z,3.30
2018-11-28T10:47:17.773Z,3.30
2018-11-28T10:49:45.977Z,3.40
2018-11-28T10:52:14.089Z,3.40
2018-11-28T10:54:42.214Z,3.50
2018-11-28T10:57:10.437Z,3.50
2018-11-28T10:59:38.548Z,3.50
2018-11-28T11:02:12.129Z,3.50
2018-11-28T11:04:45.631Z,3.60
2018-11-28T11:07:19.200Z,3.70
2018-11-28T11:09:52.735Z,3.70
2018-11-28T11:12:26.122Z,3.80
2018-11-28T11:14:54.234Z,3.90
2018-11-28T11:17:22.372Z,3.90
2018-11-28T11:19:50.479Z,4.00
2018-11-28T11:22:18.598Z,4.10
2018-11-28T11:24:46.711Z,4.10
2018-11-28T11:27:14.815Z,4.20
2018-11-28T11:29:42.939Z,4.20
2018-11-28T11:32:11.037Z,4.20
2018-11-28T11:34:39.161Z,4.30
2018-11-28T11:37:07.270Z,4.30
2018-11-28T11:39:35.396Z,4.30
2018-11-28T11:42:03.495Z,4.30
2018-11-28T11:44:31.617Z,4.30
2018-11-28T11:46:59.803Z,4.30
2018-11-28T11:49:28.296Z,4.30
2018-11-28T11:51:56.061Z,4.30
2018-11-28T11:54:24.201Z,4.40
2018-11-28T11:56:52.320Z,4.50
2018-11-28T11:59:20.489Z,4.50
2018-11-28T12:01:54.573Z,4.60
2018-11-28T12:04:16.800Z,4.70
2018-11-28T12:06:44.905Z,4.70
2018-11-28T12:09:13.024Z,4.70
2018-11-28T12:11:41.160Z,4.70
2018-11-28T12:14:09.297Z,4.70
2018-11-28T12:16:37.454Z,4.80
2018-11-28T12:19:05.821Z,4.80
2018-11-28T12:21:33.946Z,4.80
2018-11-28T12:24:02.061Z,4.90
2018-11-28T12:26:30.161Z,4.90
2018-11-28T12:28:58.301Z,4.90
2018-11-28T12:31:26.404Z,4.80
2018-11-28T12:33:54.530Z,4.80
2018-11-28T12:36:22.657Z,4.90
2018-11-28T12:38:50.788Z,4.90
2018-11-28T12:41:18.922Z,4.80
2018-11-28T12:43:47.021Z,4.80
2018-11-28T12:46:15.128Z,4.80
2018-11-28T12:48:43.240Z,4.90
2018-11-28T12:51:11.349Z,4.80
2018-11-28T12:53:39.469Z,4.90
2018-11-28T12:56:07.601Z,4.90
2018-11-28T12:58:35.718Z,5.00
2018-11-28T13:01:03.817Z,5.00
2018-11-28T13:03:31.943Z,4.90
2018-11-28T13:06:00.057Z,4.90
2018-11-28T13:08:28.176Z,5.00
2018-11-28T13:10:56.276Z,4.90
2018-11-28T13:13:24.393Z,4.90
2018-11-28T13:15:52.490Z,4.90
2018-11-28T13:18:20.645Z,4.90
2018-11-28T13:20:48.758Z,4.90
2018-11-28T13:23:16.912Z,4.90
2018-11-28T13:25:45.016Z,4.90
2018-11-28T13:28:13.128Z,4.80
2018-11-28T13:30:41.241Z,4.90
2018-11-28T13:33:10.384Z,4.80
2018-11-28T13:35:38.515Z,4.90
2018-11-28T13:38:09.884Z,4.80
2018-11-28T13:40:38.000Z,4.80
2018-11-28T13:43:06.446Z,4.80
2018-11-28T13:45:35.985Z,4.80
2018-11-28T13:48:04.099Z,4.90
2018-11-28T13:50:32.215Z,4.90
2018-11-28T13:53:02.207Z,4.90
2018-11-28T13:55:42.218Z,4.90
2018-11-28T13:58:09.958Z,4.90
2018-11-28T14:00:38.060Z,4.80
2018-11-28T14:03:06.193Z,4.90
2018-11-28T14:05:34.370Z,4.80
2018-11-28T14:08:02.465Z,4.80
2018-11-28T14:10:30.566Z,4.80
2018-11-28T14:12:58.659Z,4.80
2018-11-28T14:15:26.773Z,4.90
2018-11-28T14:18:01.259Z,4.90
2018-11-28T14:20:29.360Z,4.90
2018-11-28T14:22:57.476Z,4.90
2018-11-28T14:25:25.718Z,4.90
2018-11-28T14:27:53.703Z,4.90
2018-11-28T14:30:22.728Z,4.90
2018-11-28T14:32:51.433Z,4.80
2018-11-28T14:35:20.257Z,4.80
2018-11-28T14:37:48.298Z,4.80
2018-11-28T14:40:17.471Z,4.80
2018-11-28T14:42:46.869Z,4.80
2018-11-28T14:45:15.973Z,4.80
2018-11-28T14:47:44.456Z,4.80
2018-11-28T14:50:21.180Z,4.80
2018-11-28T14:52:49.367Z,4.70
2018-11-28T14:55:18.608Z,4.70
2018-11-28T14:57:46.720Z,4.70
2018-11-28T15:00:18.928Z,4.70
2018-11-28T15:02:49.254Z,4.70
2018-11-28T15:06:26.246Z,4.70
2018-11-28T15:08:58.580Z,4.60
2018-11-28T15:11:26.691Z,4.60
2018-11-28T15:13:54.788Z,4.50
2018-11-28T15:16:22.909Z,4.50
2018-11-28T15:18:51.045Z,4.50
2018-11-28T15:21:19.187Z,4.50
2018-11-28T15:23:47.281Z,4.50
2018-11-28T15:26:15.398Z,4.50
2018-11-28T15:28:43.503Z,4.50
2018-11-28T15:31:11.615Z,4.50
2018-11-28T15:33:39.707Z,4.50
2018-11-28T15:36:07.808Z,4.50
2018-11-28T15:38:35.913Z,4.40
2018-11-28T15:41:04.024Z,4.40
2018-11-28T15:43:32.134Z,4.40
2018-11-28T15:46:07.006Z,4.40
2018-11-28T15:48:35.094Z,4.40
2018-11-28T15:51:03.209Z,4.40
2018-11-28T15:53:31.325Z,4.40
2018-11-28T15:55:59.430Z,4.30
2018-11-28T15:58:27.530Z,4.40
2018-11-28T16:00:55.652Z,4.30
2018-11-28T16:03:23.753Z,4.40
2018-11-28T16:05:51.859Z,4.30
2018-11-28T16:08:19.957Z,4.30
2018-11-28T16:10:48.093Z,4.30
2018-11-28T16:13:17.469Z,4.20
2018-11-28T16:15:48.314Z,4.20
2018-11-28T16:18:16.413Z,4.20
2018-11-28T16:20:44.520Z,4.20
2018-11-28T16:23:12.623Z,4.20
2018-11-28T16:25:40.729Z,4.10
2018-11-28T16:28:09.109Z,4.10
2018-11-28T16:30:37.237Z,4.10
2018-11-28T16:33:06.189Z,4.10
2018-11-28T16:35:34.357Z,4.10
2018-11-28T16:38:02.469Z,4.10
2018-11-28T16:40:30.605Z,4.00
2018-11-28T16:42:58.757Z,4.00
2018-11-28T16:45:26.921Z,4.00
2018-11-28T16:47:55.030Z,4.00
2018-11-28T16:50:23.172Z,4.00
2018-11-28T16:52:51.289Z,4.00
2018-11-28T16:55:19.389Z,4.00
2018-11-28T16:57:49.002Z,4.00
2018-11-28T17:00:26.003Z,4.00
2018-11-28T17:02:54.869Z,4.00
2018-11-28T17:05:23.276Z,4.10
2018-11-28T17:07:51.797Z,4.00
2018-11-28T17:10:22.040Z,4.00
2018-11-28T17:12:50.736Z,4.00
2018-11-28T17:15:19.418Z,4.00
2018-11-28T17:17:47.557Z,4.00
2018-11-28T17:20:24.576Z,4.00
2018-11-28T17:22:53.982Z,4.00
2018-11-28T17:25:24.296Z,4.10
2018-11-28T17:27:52.439Z,4.10
2018-11-28T17:30:26.486Z,4.20
2018-11-28T17:32:54.733Z,4.20
2018-11-28T17:35:22.692Z,4.20
2018-11-28T17:37:50.954Z,4.10
2018-11-28T17:40:20.290Z,4.10
2018-11-28T17:42:49.741Z,4.20
2018-11-28T17:45:18.291Z,4.20
2018-11-28T17:47:46.393Z,4.20
2018-11-28T17:50:16.317Z,4.10
2018-11-28T17:52:48.145Z,4.10
2018-11-28T17:55:17.228Z,4.10
2018-11-28T17:57:45.341Z,4.10
2018-11-28T18:00:14.853Z,4.10
2018-11-28T18:02:42.982Z,4.10
2018-11-28T18:05:11.433Z,3.90
2018-11-28T18:07:39.608Z,3.80
2018-11-28T18:10:20.649Z,3.70
2018-11-28T18:13:00.200Z,3.70
2018-11-28T18:15:28.310Z,3.50
2018-11-28T18:17:57.112Z,3.40
2018-11-28T18:20:25.217Z,3.40
2018-11-28T18:22:53.343Z,3.30
2018-11-28T18:25:22.040Z,3.30
2018-11-28T18:27:50.624Z,3.30
2018-11-28T18:30:18.724Z,3.30
2018-11-28T18:32:46.832Z,3.30
2018-11-28T18:35:14.936Z,3.30
2018-11-28T18:37:43.048Z,3.30
2018-11-28T18:40:12.033Z,3.30
2018-11-28T18:42:40.993Z,3.30
2018-11-28T18:45:16.827Z,3.30
2018-11-28T18:47:44.970Z,3.30
2018-11-28T18:50:13.698Z,3.30
2018-11-28T18:52:41.858Z,3.30
2018-11-28T18:55:16.325Z,3.30
2018-11-28T18:57:39.420Z,3.40
2018-11-28T19:00:11.526Z,3.40
2018-11-28T19:02:40.011Z,3.40
2018-11-28T19:05:08.149Z,3.40
2018-11-28T19:07:36.260Z,3.40
2018-11-28T19:10:06.685Z,3.40
2018-11-28T19:12:34.797Z,3.40
2018-11-28T19:15:02.900Z,3.50
2018-11-28T19:17:31.022Z,3.40
2018-11-28T19:19:59.128Z,3.50
2018-11-28T19:22:27.281Z,3.50
2018-11-28T19:24:55.349Z,3.50
2018-11-28T19:27:23.463Z,3.50
2018-11-28T19:29:51.560Z,3.50
2018-11-28T19:32:19.732Z,3.50
2018-11-28T19:34:47.845Z,3.50
2018-11-28T19:37:15.977Z,3.50
2018-11-28T19:39:44.096Z,3.50
2018-11-28T19:42:12.201Z,3.50
2018-11-28T19:44:40.320Z,3.50
2018-11-28T19:47:08.696Z,3.50
2018-11-28T19:49:37.960Z,3.50
2018-11-28T19:52:06.165Z,3.50
2018-11-28T19:54:34.312Z,3.50
2018-11-28T19:57:02.425Z,3.50
2018-11-28T19:59:30.544Z,3.50
2018-11-28T20:01:58.645Z,3.60
2018-11-28T20:04:26.753Z,3.60
2018-11-28T20:06:54.857Z,3.60
2018-11-28T20:09:22.972Z,3.60
2018-11-28T20:11:51.108Z,3.60
2018-11-28T20:14:19.248Z,3.60
2018-11-28T20:16:47.355Z,3.60
2018-11-28T20:19:17.609Z,3.60
2018-11-28T20:21:43.713Z,3.60
2018-11-28T20:24:11.843Z,3.70
2018-11-28T20:26:39.964Z,3.70
2018-11-28T20:29:08.105Z,3.70
2018-11-28T20:31:36.273Z,3.70
2018-11-28T20:34:04.680Z,3.70
2018-11-28T20:36:32.905Z,3.70
2018-11-28T20:39:00.956Z,3.70
2018-11-28T20:41:29.117Z,3.70
2018-11-28T20:43:57.296Z,3.70
2018-11-28T20:46:25.405Z,3.70
2018-11-28T20:48:53.608Z,3.70
2018-11-28T20:51:21.786Z,3.70
2018-11-28T20:53:49.912Z,3.70
2018-11-28T20:56:18.040Z,3.80
2018-11-28T20:58:46.136Z,3.80
2018-11-28T21:01:14.256Z,3.80
2018-11-28T21:03:42.463Z,3.80
2018-11-28T21:06:10.572Z,3.90
2018-11-28T21:08:38.684Z,3.90
2018-11-28T21:11:13.612Z,3.90
2018-11-28T21:13:41.716Z,3.90
2018-11-28T21:16:09.825Z,3.90
2018-11-28T21:18:37.934Z,4.00
2018-11-28T21:21:07.338Z,3.90
2018-11-28T21:23:35.482Z,3.90
2018-11-28T21:26:03.568Z,3.90
2018-11-28T21:28:32.520Z,3.90
2018-11-28T21:31:00.657Z,4.00
2018-11-28T21:33:28.764Z,4.00
2018-11-28T21:35:56.888Z,4.00
2018-11-28T21:38:24.999Z,4.00
2018-11-28T21:40:53.152Z,4.00
2018-11-28T21:43:21.261Z,3.90
2018-11-28T21:45:49.412Z,4.00
2018-11-28T21:48:17.480Z,4.00
2018-11-28T21:50:45.617Z,3.90
2018-11-28T21:53:13.778Z,3.90
2018-11-28T21:55:41.875Z,3.90
2018-11-28T21:58:09.988Z,3.90
2018-11-28T22:00:38.107Z,3.90
2018-11-28T22:03:06.920Z,4.00
2018-11-28T22:05:35.036Z,3.90
2018-11-28T22:08:03.228Z,3.90
2018-11-28T22:10:31.536Z,3.90
2018-11-28T22:12:59.648Z,3.90
2018-11-28T22:15:27.757Z,3.90
2018-11-28T22:17:57.780Z,4.00
2018-11-28T22:20:26.456Z,4.00
2018-11-28T22:22:54.584Z,4.00
2018-11-28T22:25:23.629Z,4.10
2018-11-28T22:27:51.813Z,4.00
2018-11-28T22:30:21.912Z,4.00
2018-11-28T22:32:50.060Z,4.00
2018-11-28T22:35:18.172Z,4.00
2018-11-28T22:37:46.280Z,4.00
2018-11-28T22:40:16.568Z,4.00
2018-11-28T22:42:44.684Z,4.00
2018-11-28T22:45:16.665Z,4.00
2018-11-28T22:47:44.776Z,4.00
2018-11-28T22:50:13.444Z,4.00
2018-11-28T22:52:41.593Z,4.10
2018-11-28T22:55:12.537Z,4.00
2018-11-28T22:57:40.648Z,4.00
2018-11-28T23:00:17.453Z,4.00
2018-11-28T23:02:51.676Z,4.10
2018-11-28T23:05:20.111Z,4.10
2018-11-28T23:07:48.247Z,4.00
2018-11-28T23:10:16.381Z,4.10
2018-11-28T23:12:44.492Z,4.10
2018-11-28T23:15:12.600Z,4.00
2018-11-28T23:17:40.736Z,4.10
2018-11-28T23:20:09.761Z,4.10
2018-11-28T23:22:37.872Z,4.10
2018-11-28T23:25:07.869Z,4.10
2018-11-28T23:27:35.996Z,4.10
2018-11-28T23:30:04.412Z,4.10
2018-11-28T23:32:32.536Z,4.10
2018-11-28T23:35:00.636Z,4.10
2018-11-28T23:37:28.757Z,4.10
2018-11-28T23:39:56.868Z,4.10
2018-11-28T23:42:24.985Z,4.10
2018-11-28T23:44:53.144Z,4.20
2018-11-28T23:47:21.252Z,4.20
2018-11-28T23:49:49.360Z,4.20
2018-11-28T23:52:17.476Z,4.20
2018-11-28T23:54:45.600Z,4.10
2018-11-28T23:57:13.713Z,4.10
2018-11-28T23:59:41.821Z,4.10
